メインページ
METAR-TAF:

METAR-TAF

空港 :

Omak, ワシントン, アメリカ合衆国

Omak Airport

緯度: 48-27-51N, 経度: 119-31-05W, 海抜: 397m

現時点の気象観測

当レポートは48分前の01:53(UTC)に作成
南/南西の風 7kt
気温 18°C
湿度 32%
気圧 1019 hPa
視程: 16.1km
晴天

METAR: KOMK 200153Z AUTO 20007KT 10SM CLR 18/01 A3009 RMK AO2 SLP192 T01780006

時間: 19:41 (02:41 UTC)


TAF: 見つかりません

4,000以上の空港の気象観測と天気予報(METAR報とTAF報)

利用可能な観測所は地図上に黄色い丸と赤い丸で示す。

丸の上にカーソルを重ねると観測所名を参照できる。

次にクリックすると気象観測と天気予報を参照できる。

マップの切り替え:黒色「×」印の緑ボタンをクリックして拡大、「-」印の緑ボタンをクリックして縮小、緑色の三角印をクリックして隣りの地図に切り替え


METAR-TAF: